sensor_id;sensor_type;location;lat;lon;timestamp;pressure;altitude;pressure_sealevel;temperature;humidity
51986;BME280;38002;53.296;6.600;2022-07-23T00:04:55;102082.75;;;17.18;65.56
51986;BME280;38002;53.296;6.600;2022-07-23T00:09:55;102083.28;;;17.14;65.31
51986;BME280;38002;53.296;6.600;2022-07-23T00:14:55;102072.16;;;17.07;66.05
51986;BME280;38002;53.296;6.600;2022-07-23T00:19:56;102076.31;;;16.95;66.04
51986;BME280;38002;53.296;6.600;2022-07-23T00:24:56;102080.44;;;16.91;66.38
51986;BME280;38002;53.296;6.600;2022-07-23T00:29:57;102078.00;;;16.88;66.48
51986;BME280;38002;53.296;6.600;2022-07-23T00:34:57;102072.16;;;16.83;66.60
51986;BME280;38002;53.296;6.600;2022-07-23T00:39:58;102057.59;;;16.74;66.66
51986;BME280;38002;53.296;6.600;2022-07-23T00:44:59;102065.16;;;16.72;66.85
51986;BME280;38002;53.296;6.600;2022-07-23T00:49:59;102047.47;;;16.59;66.97
51986;BME280;38002;53.296;6.600;2022-07-23T00:55:00;102052.59;;;16.54;66.97
51986;BME280;38002;53.296;6.600;2022-07-23T01:00:02;102057.72;;;16.57;67.33
51986;BME280;38002;53.296;6.600;2022-07-23T01:05:03;102058.94;;;16.54;67.14
51986;BME280;38002;53.296;6.600;2022-07-23T01:10:05;102045.22;;;16.54;67.29
51986;BME280;38002;53.296;6.600;2022-07-23T01:15:26;102051.56;;;16.47;67.36
51986;BME280;38002;53.296;6.600;2022-07-23T01:20:26;102049.84;;;16.46;67.71
51986;BME280;38002;53.296;6.600;2022-07-23T01:25:27;102040.94;;;16.44;67.61
51986;BME280;38002;53.296;6.600;2022-07-23T01:30:27;102035.09;;;16.39;67.67
51986;BME280;38002;53.296;6.600;2022-07-23T01:35:28;102031.50;;;16.30;68.39
51986;BME280;38002;53.296;6.600;2022-07-23T01:40:28;102029.41;;;16.32;68.01
51986;BME280;38002;53.296;6.600;2022-07-23T01:45:29;102032.34;;;16.30;68.07
51986;BME280;38002;53.296;6.600;2022-07-23T01:50:29;102029.09;;;16.35;67.95
51986;BME280;38002;53.296;6.600;2022-07-23T01:55:30;102013.31;;;16.37;68.08
51986;BME280;38002;53.296;6.600;2022-07-23T02:00:30;102016.41;;;16.34;68.12
51986;BME280;38002;53.296;6.600;2022-07-23T02:05:30;102024.78;;;16.41;68.07
51986;BME280;38002;53.296;6.600;2022-07-23T02:10:32;102010.91;;;16.42;68.15
51986;BME280;38002;53.296;6.600;2022-07-23T02:15:32;102007.28;;;16.42;68.24
51986;BME280;38002;53.296;6.600;2022-07-23T02:20:33;102001.09;;;16.40;68.26
51986;BME280;38002;53.296;6.600;2022-07-23T02:25:34;102012.09;;;16.40;68.44
51986;BME280;38002;53.296;6.600;2022-07-23T02:30:34;102003.19;;;16.38;68.50
51986;BME280;38002;53.296;6.600;2022-07-23T02:35:35;101999.22;;;16.32;68.70
51986;BME280;38002;53.296;6.600;2022-07-23T02:40:35;102004.41;;;16.35;68.60
51986;BME280;38002;53.296;6.600;2022-07-23T02:45:36;101997.69;;;16.38;68.56
51986;BME280;38002;53.296;6.600;2022-07-23T02:50:36;102000.09;;;16.41;68.58
51986;BME280;38002;53.296;6.600;2022-07-23T02:55:37;102010.75;;;16.44;68.78
51986;BME280;38002;53.296;6.600;2022-07-23T03:00:37;102006.28;;;16.43;68.88
51986;BME280;38002;53.296;6.600;2022-07-23T03:05:38;102011.56;;;16.44;68.73
51986;BME280;38002;53.296;6.600;2022-07-23T03:10:38;102003.19;;;16.38;69.27
51986;BME280;38002;53.296;6.600;2022-07-23T03:15:39;101988.75;;;16.35;69.25
51986;BME280;38002;53.296;6.600;2022-07-23T03:20:39;101993.72;;;16.40;69.32
51986;BME280;38002;53.296;6.600;2022-07-23T03:25:40;101989.81;;;16.34;69.66
51986;BME280;38002;53.296;6.600;2022-07-23T03:30:40;101999.41;;;16.39;69.55
51986;BME280;38002;53.296;6.600;2022-07-23T03:35:40;101997.84;;;16.28;69.75
51986;BME280;38002;53.296;6.600;2022-07-23T03:40:41;102004.91;;;16.30;69.96
51986;BME280;38002;53.296;6.600;2022-07-23T03:45:42;101986.88;;;16.20;69.95
51986;BME280;38002;53.296;6.600;2022-07-23T03:50:42;102000.44;;;16.29;70.01
51986;BME280;38002;53.296;6.600;2022-07-23T03:55:43;102002.66;;;16.34;69.93
51986;BME280;38002;53.296;6.600;2022-07-23T04:00:43;102000.09;;;16.32;69.98
51986;BME280;38002;53.296;6.600;2022-07-23T04:05:44;102007.66;;;16.39;70.08
51986;BME280;38002;53.296;6.600;2022-07-23T04:10:44;102008.50;;;16.39;70.20
51986;BME280;38002;53.296;6.600;2022-07-23T04:15:45;102009.69;;;16.45;69.85
51986;BME280;38002;53.296;6.600;2022-07-23T04:20:46;101990.81;;;16.42;70.19
51986;BME280;38002;53.296;6.600;2022-07-23T04:25:47;102006.94;;;16.53;70.41
51986;BME280;38002;53.296;6.600;2022-07-23T04:30:48;102008.28;;;16.57;70.00
51986;BME280;38002;53.296;6.600;2022-07-23T04:35:48;102009.38;;;16.64;70.09
51986;BME280;38002;53.296;6.600;2022-07-23T04:40:49;101997.03;;;16.60;70.13
51986;BME280;38002;53.296;6.600;2022-07-23T04:45:49;102007.28;;;16.66;70.21
51986;BME280;38002;53.296;6.600;2022-07-23T04:50:50;102007.63;;;16.71;69.97
51986;BME280;38002;53.296;6.600;2022-07-23T04:55:50;102019.81;;;16.76;70.11
51986;BME280;38002;53.296;6.600;2022-07-23T05:00:51;102005.06;;;16.77;70.08
51986;BME280;38002;53.296;6.600;2022-07-23T05:05:51;102019.63;;;16.86;69.79
51986;BME280;38002;53.296;6.600;2022-07-23T05:10:51;102022.19;;;16.88;69.87
51986;BME280;38002;53.296;6.600;2022-07-23T05:15:52;102019.97;;;16.91;69.82
51986;BME280;38002;53.296;6.600;2022-07-23T05:20:52;102034.72;;;16.98;70.07
51986;BME280;38002;53.296;6.600;2022-07-23T05:25:53;102029.22;;;16.98;69.87
51986;BME280;38002;53.296;6.600;2022-07-23T05:30:54;102031.44;;;17.03;69.98
51986;BME280;38002;53.296;6.600;2022-07-23T05:36:00;102037.94;;;17.10;69.81
51986;BME280;38002;53.296;6.600;2022-07-23T05:41:00;102033.28;;;17.18;69.72
51986;BME280;38002;53.296;6.600;2022-07-23T05:46:01;102016.13;;;17.16;69.58
51986;BME280;38002;53.296;6.600;2022-07-23T05:51:02;102037.88;;;17.34;69.45
51986;BME280;38002;53.296;6.600;2022-07-23T05:56:06;102043.16;;;17.44;69.65
51986;BME280;38002;53.296;6.600;2022-07-23T06:01:06;102044.84;;;17.53;69.58
51986;BME280;38002;53.296;6.600;2022-07-23T06:06:07;102049.66;;;17.59;69.55
51986;BME280;38002;53.296;6.600;2022-07-23T06:11:08;102056.16;;;17.66;69.57
51986;BME280;38002;53.296;6.600;2022-07-23T06:16:08;102050.34;;;17.53;69.86
51986;BME280;38002;53.296;6.600;2022-07-23T06:21:09;102041.03;;;17.62;69.85
51986;BME280;38002;53.296;6.600;2022-07-23T06:26:09;102037.59;;;17.68;69.48
51986;BME280;38002;53.296;6.600;2022-07-23T06:31:10;102047.53;;;17.77;69.54
51986;BME280;38002;53.296;6.600;2022-07-23T06:36:10;102039.81;;;17.95;69.52
51986;BME280;38002;53.296;6.600;2022-07-23T06:41:10;102051.09;;;18.08;68.99
51986;BME280;38002;53.296;6.600;2022-07-23T06:46:11;102063.69;;;18.26;68.54
51986;BME280;38002;53.296;6.600;2022-07-23T06:51:11;102054.56;;;18.33;68.43
51986;BME280;38002;53.296;6.600;2022-07-23T06:56:12;102043.78;;;18.46;67.92
51986;BME280;38002;53.296;6.600;2022-07-23T07:01:12;102055.16;;;18.66;67.81
51986;BME280;38002;53.296;6.600;2022-07-23T07:06:14;102062.00;;;18.70;67.80
51986;BME280;38002;53.296;6.600;2022-07-23T07:11:15;102076.25;;;18.59;67.90
51986;BME280;38002;53.296;6.600;2022-07-23T07:16:16;102085.91;;;18.55;67.78
51986;BME280;38002;53.296;6.600;2022-07-23T07:21:16;102078.78;;;18.61;67.83
51986;BME280;38002;53.296;6.600;2022-07-23T07:26:17;102075.53;;;18.94;66.72
51986;BME280;38002;53.296;6.600;2022-07-23T07:31:17;102076.66;;;19.23;66.28
51986;BME280;38002;53.296;6.600;2022-07-23T07:36:17;102082.66;;;19.41;65.65
51986;BME280;38002;53.296;6.600;2022-07-23T07:41:18;102094.81;;;19.32;66.16
51986;BME280;38002;53.296;6.600;2022-07-23T07:46:23;102100.59;;;19.22;65.80
51986;BME280;38002;53.296;6.600;2022-07-23T07:51:24;102107.38;;;19.20;65.81
51986;BME280;38002;53.296;6.600;2022-07-23T07:56:24;102117.06;;;19.30;65.45
51986;BME280;38002;53.296;6.600;2022-07-23T08:01:25;102120.34;;;19.78;64.20
51986;BME280;38002;53.296;6.600;2022-07-23T08:06:26;102115.72;;;20.00;63.47
51986;BME280;38002;53.296;6.600;2022-07-23T08:11:26;102116.00;;;20.05;63.07
51986;BME280;38002;53.296;6.600;2022-07-23T08:16:27;102126.72;;;20.29;62.23
51986;BME280;38002;53.296;6.600;2022-07-23T08:21:27;102108.34;;;20.78;60.97
51986;BME280;38002;53.296;6.600;2022-07-23T08:26:28;102102.38;;;21.03;60.22
51986;BME280;38002;53.296;6.600;2022-07-23T08:31:28;102121.09;;;21.01;60.20
51986;BME280;38002;53.296;6.600;2022-07-23T08:36:29;102124.00;;;21.14;59.88
51986;BME280;38002;53.296;6.600;2022-07-23T08:41:33;102124.41;;;21.45;58.89
51986;BME280;38002;53.296;6.600;2022-07-23T08:46:34;102133.16;;;21.49;58.39
51986;BME280;38002;53.296;6.600;2022-07-23T08:51:36;102131.16;;;21.36;58.28
51986;BME280;38002;53.296;6.600;2022-07-23T08:56:37;102123.88;;;21.56;57.63
51986;BME280;38002;53.296;6.600;2022-07-23T09:01:37;102122.56;;;21.87;56.60
51986;BME280;38002;53.296;6.600;2022-07-23T09:06:42;102125.00;;;22.03;56.23
51986;BME280;38002;53.296;6.600;2022-07-23T09:11:46;102100.88;;;21.97;55.68
51986;BME280;38002;53.296;6.600;2022-07-23T09:16:46;102118.03;;;22.20;55.45
51986;BME280;38002;53.296;6.600;2022-07-23T09:21:47;102126.56;;;22.32;55.07
51986;BME280;38002;53.296;6.600;2022-07-23T09:26:48;102114.63;;;22.31;54.99
51986;BME280;38002;53.296;6.600;2022-07-23T09:31:58;102129.59;;;22.37;54.67
51986;BME280;38002;53.296;6.600;2022-07-23T09:42:25;102148.13;;;22.30;54.85
51986;BME280;38002;53.296;6.600;2022-07-23T09:47:31;102138.91;;;22.23;54.58
51986;BME280;38002;53.296;6.600;2022-07-23T09:52:34;102147.47;;;22.28;54.76
51986;BME280;38002;53.296;6.600;2022-07-23T09:57:34;102151.88;;;22.09;54.61
51986;BME280;38002;53.296;6.600;2022-07-23T10:02:35;102151.41;;;21.99;54.56
51986;BME280;38002;53.296;6.600;2022-07-23T10:07:39;102147.59;;;22.06;54.36
51986;BME280;38002;53.296;6.600;2022-07-23T10:12:43;102151.28;;;22.20;54.00
51986;BME280;38002;53.296;6.600;2022-07-23T10:17:59;102136.81;;;22.25;53.61
51986;BME280;38002;53.296;6.600;2022-07-23T10:23:13;102151.13;;;22.41;53.58
51986;BME280;38002;53.296;6.600;2022-07-23T10:29:00;102166.53;;;22.50;53.31
51986;BME280;38002;53.296;6.600;2022-07-23T10:33:58;102164.22;;;22.60;52.70
51986;BME280;38002;53.296;6.600;2022-07-23T10:39:15;102161.44;;;22.60;52.90
51986;BME280;38002;53.296;6.600;2022-07-23T10:44:20;102175.41;;;22.39;53.58
51986;BME280;38002;53.296;6.600;2022-07-23T10:49:33;102174.97;;;22.29;54.04
51986;BME280;38002;53.296;6.600;2022-07-23T10:54:33;102178.56;;;22.23;54.18
51986;BME280;38002;53.296;6.600;2022-07-23T11:17:21;102168.34;;;22.78;53.97
51986;BME280;38002;53.296;6.600;2022-07-23T11:27:45;102170.44;;;22.76;53.91
51986;BME280;38002;53.296;6.600;2022-07-23T11:32:46;102176.34;;;22.66;54.17
51986;BME280;38002;53.296;6.600;2022-07-23T11:37:47;102182.53;;;22.61;54.02
51986;BME280;38002;53.296;6.600;2022-07-23T11:43:11;102164.28;;;22.74;53.75
51986;BME280;38002;53.296;6.600;2022-07-23T11:48:19;102185.19;;;22.89;53.48
51986;BME280;38002;53.296;6.600;2022-07-23T11:58:23;102182.63;;;22.81;53.01
51986;BME280;38002;53.296;6.600;2022-07-23T12:03:24;102186.88;;;22.84;53.62
51986;BME280;38002;53.296;6.600;2022-07-23T12:08:24;102184.56;;;22.94;53.03
51986;BME280;38002;53.296;6.600;2022-07-23T12:13:24;102172.41;;;23.01;53.20
51986;BME280;38002;53.296;6.600;2022-07-23T12:18:26;102182.66;;;23.21;52.93
51986;BME280;38002;53.296;6.600;2022-07-23T12:23:27;102186.72;;;23.38;52.06
51986;BME280;38002;53.296;6.600;2022-07-23T12:28:30;102180.13;;;23.59;52.00
51986;BME280;38002;53.296;6.600;2022-07-23T12:33:33;102184.34;;;23.81;51.63
51986;BME280;38002;53.296;6.600;2022-07-23T12:38:51;102172.66;;;24.30;50.38
51986;BME280;38002;53.296;6.600;2022-07-23T12:43:51;102177.34;;;24.36;50.93
51986;BME280;38002;53.296;6.600;2022-07-23T12:48:53;102174.63;;;24.23;51.14
51986;BME280;38002;53.296;6.600;2022-07-23T12:53:56;102177.75;;;24.39;50.72
51986;BME280;38002;53.296;6.600;2022-07-23T13:09:18;102182.81;;;25.43;49.17
51986;BME280;38002;53.296;6.600;2022-07-23T13:14:20;102187.31;;;25.44;49.36
51986;BME280;38002;53.296;6.600;2022-07-23T13:19:21;102182.53;;;25.51;49.28
51986;BME280;38002;53.296;6.600;2022-07-23T13:24:24;102178.13;;;26.05;47.97
51986;BME280;38002;53.296;6.600;2022-07-23T13:29:24;102188.25;;;26.54;47.06
51986;BME280;38002;53.296;6.600;2022-07-23T13:34:25;102178.59;;;26.68;46.98
51986;BME280;38002;53.296;6.600;2022-07-23T13:39:25;102170.16;;;27.04;46.57
51986;BME280;38002;53.296;6.600;2022-07-23T13:44:25;102164.34;;;27.18;46.04
51986;BME280;38002;53.296;6.600;2022-07-23T13:49:26;102174.47;;;26.89;46.86
51986;BME280;38002;53.296;6.600;2022-07-23T13:54:27;102171.75;;;26.82;46.59
51986;BME280;38002;53.296;6.600;2022-07-23T13:59:27;102171.00;;;27.17;46.30
51986;BME280;38002;53.296;6.600;2022-07-23T14:04:28;102175.59;;;26.99;46.09
51986;BME280;38002;53.296;6.600;2022-07-23T14:09:28;102165.63;;;26.62;46.21
51986;BME280;38002;53.296;6.600;2022-07-23T14:14:30;102176.69;;;26.80;45.73
51986;BME280;38002;53.296;6.600;2022-07-23T14:19:30;102171.50;;;27.14;45.21
51986;BME280;38002;53.296;6.600;2022-07-23T14:24:31;102173.31;;;27.20;45.08
51986;BME280;38002;53.296;6.600;2022-07-23T14:29:32;102169.72;;;27.31;44.47
51986;BME280;38002;53.296;6.600;2022-07-23T14:34:33;102176.66;;;27.51;44.17
51986;BME280;38002;53.296;6.600;2022-07-23T14:39:33;102164.50;;;26.93;45.44
51986;BME280;38002;53.296;6.600;2022-07-23T14:44:35;102181.81;;;27.13;44.88
51986;BME280;38002;53.296;6.600;2022-07-23T14:49:36;102171.16;;;27.22;44.31
51986;BME280;38002;53.296;6.600;2022-07-23T14:54:36;102164.22;;;27.13;44.70
51986;BME280;38002;53.296;6.600;2022-07-23T14:59:37;102174.03;;;27.15;44.43
51986;BME280;38002;53.296;6.600;2022-07-23T15:04:37;102181.53;;;26.91;44.74
51986;BME280;38002;53.296;6.600;2022-07-23T15:09:38;102186.66;;;26.76;44.74
51986;BME280;38002;53.296;6.600;2022-07-23T15:14:38;102186.56;;;26.83;44.52
51986;BME280;38002;53.296;6.600;2022-07-23T15:19:39;102187.09;;;26.91;44.51
51986;BME280;38002;53.296;6.600;2022-07-23T15:24:39;102185.53;;;26.95;44.26
51986;BME280;38002;53.296;6.600;2022-07-23T15:29:39;102171.66;;;26.89;43.92
51986;BME280;38002;53.296;6.600;2022-07-23T15:34:40;102166.00;;;26.95;44.77
51986;BME280;38002;53.296;6.600;2022-07-23T15:39:40;102181.66;;;26.96;45.00
51986;BME280;38002;53.296;6.600;2022-07-23T15:44:42;102170.50;;;26.96;44.77
51986;BME280;38002;53.296;6.600;2022-07-23T15:49:44;102182.22;;;26.87;45.09
51986;BME280;38002;53.296;6.600;2022-07-23T15:54:44;102174.50;;;26.71;45.29
51986;BME280;38002;53.296;6.600;2022-07-23T15:59:45;102178.47;;;26.63;45.80
51986;BME280;38002;53.296;6.600;2022-07-23T16:04:45;102164.44;;;26.40;46.24
51986;BME280;38002;53.296;6.600;2022-07-23T16:09:46;102165.53;;;26.21;46.58
51986;BME280;38002;53.296;6.600;2022-07-23T16:14:47;102159.94;;;25.84;46.95
51986;BME280;38002;53.296;6.600;2022-07-23T16:19:47;102161.09;;;25.58;47.33
51986;BME280;38002;53.296;6.600;2022-07-23T16:24:48;102159.81;;;25.54;47.25
51986;BME280;38002;53.296;6.600;2022-07-23T16:29:49;102148.84;;;25.35;47.51
51986;BME280;38002;53.296;6.600;2022-07-23T16:34:49;102139.28;;;24.99;47.99
51986;BME280;38002;53.296;6.600;2022-07-23T16:39:50;102134.91;;;24.85;48.26
51986;BME280;38002;53.296;6.600;2022-07-23T16:44:50;102148.16;;;24.83;48.08
51986;BME280;38002;53.296;6.600;2022-07-23T16:49:51;102158.19;;;24.59;48.67
51986;BME280;38002;53.296;6.600;2022-07-23T16:54:51;102147.56;;;24.43;48.60
51986;BME280;38002;53.296;6.600;2022-07-23T16:59:52;102133.56;;;24.18;49.02
51986;BME280;38002;53.296;6.600;2022-07-23T17:04:52;102146.63;;;24.18;48.79
51986;BME280;38002;53.296;6.600;2022-07-23T17:09:53;102151.34;;;24.11;49.25
51986;BME280;38002;53.296;6.600;2022-07-23T17:14:53;102151.84;;;23.88;49.75
51986;BME280;38002;53.296;6.600;2022-07-23T17:19:54;102152.31;;;23.72;50.13
51986;BME280;38002;53.296;6.600;2022-07-23T17:24:54;102151.47;;;23.51;50.01
51986;BME280;38002;53.296;6.600;2022-07-23T17:29:55;102154.06;;;23.33;50.19
51986;BME280;38002;53.296;6.600;2022-07-23T17:34:55;102154.03;;;23.27;50.45
51986;BME280;38002;53.296;6.600;2022-07-23T17:39:56;102150.63;;;22.92;51.18
51986;BME280;38002;53.296;6.600;2022-07-23T17:44:56;102140.38;;;22.73;51.83
51986;BME280;38002;53.296;6.600;2022-07-23T17:49:56;102152.97;;;22.82;51.54
51986;BME280;38002;53.296;6.600;2022-07-23T17:54:57;102137.19;;;22.89;51.87
51986;BME280;38002;53.296;6.600;2022-07-23T17:59:57;102144.41;;;22.83;51.71
51986;BME280;38002;53.296;6.600;2022-07-23T18:04:58;102155.03;;;22.67;52.03
51986;BME280;38002;53.296;6.600;2022-07-23T18:09:59;102155.44;;;22.57;52.44
51986;BME280;38002;53.296;6.600;2022-07-23T18:14:59;102150.31;;;22.47;52.99
51986;BME280;38002;53.296;6.600;2022-07-23T18:20:00;102156.81;;;22.27;53.22
51986;BME280;38002;53.296;6.600;2022-07-23T18:25:00;102156.78;;;22.13;53.76
51986;BME280;38002;53.296;6.600;2022-07-23T18:30:01;102160.59;;;22.06;54.15
51986;BME280;38002;53.296;6.600;2022-07-23T18:35:03;102149.88;;;21.96;54.25
51986;BME280;38002;53.296;6.600;2022-07-23T18:40:06;102148.09;;;21.82;54.43
51986;BME280;38002;53.296;6.600;2022-07-23T18:45:09;102158.06;;;21.77;54.86
51986;BME280;38002;53.296;6.600;2022-07-23T18:50:11;102157.38;;;21.68;55.17
51986;BME280;38002;53.296;6.600;2022-07-23T18:55:12;102159.03;;;21.62;55.15
51986;BME280;38002;53.296;6.600;2022-07-23T19:00:13;102153.63;;;21.48;56.09
51986;BME280;38002;53.296;6.600;2022-07-23T19:05:14;102147.56;;;21.31;56.32
51986;BME280;38002;53.296;6.600;2022-07-23T19:10:15;102155.34;;;21.21;56.46
51986;BME280;38002;53.296;6.600;2022-07-23T19:15:16;102155.19;;;21.08;56.70
51986;BME280;38002;53.296;6.600;2022-07-23T19:20:16;102162.31;;;20.96;56.79
51986;BME280;38002;53.296;6.600;2022-07-23T19:25:17;102155.34;;;20.78;57.10
51986;BME280;38002;53.296;6.600;2022-07-23T19:30:17;102158.16;;;20.64;57.46
51986;BME280;38002;53.296;6.600;2022-07-23T19:35:18;102161.75;;;20.43;57.95
51986;BME280;38002;53.296;6.600;2022-07-23T19:40:18;102151.56;;;20.29;57.92
51986;BME280;38002;53.296;6.600;2022-07-23T19:45:19;102165.91;;;20.18;58.63
51986;BME280;38002;53.296;6.600;2022-07-23T19:50:20;102162.97;;;20.05;58.56
51986;BME280;38002;53.296;6.600;2022-07-23T19:55:21;102159.44;;;19.96;58.80
51986;BME280;38002;53.296;6.600;2022-07-23T20:00:23;102156.41;;;19.76;59.41
51986;BME280;38002;53.296;6.600;2022-07-23T20:05:24;102159.19;;;19.62;59.57
51986;BME280;38002;53.296;6.600;2022-07-23T20:10:25;102155.53;;;19.46;59.58
51986;BME280;38002;53.296;6.600;2022-07-23T20:15:25;102161.66;;;19.34;60.09
51986;BME280;38002;53.296;6.600;2022-07-23T20:20:28;102149.56;;;19.20;60.57
51986;BME280;38002;53.296;6.600;2022-07-23T20:25:29;102148.00;;;19.03;60.72
51986;BME280;38002;53.296;6.600;2022-07-23T20:30:29;102149.41;;;18.99;61.15
51986;BME280;38002;53.296;6.600;2022-07-23T20:35:30;102144.19;;;18.89;61.26
51986;BME280;38002;53.296;6.600;2022-07-23T20:40:31;102146.72;;;18.76;61.38
51986;BME280;38002;53.296;6.600;2022-07-23T20:45:31;102152.63;;;18.65;61.96
51986;BME280;38002;53.296;6.600;2022-07-23T20:50:32;102141.19;;;18.53;62.07
51986;BME280;38002;53.296;6.600;2022-07-23T20:55:32;102140.84;;;18.48;62.33
51986;BME280;38002;53.296;6.600;2022-07-23T21:00:33;102146.72;;;18.45;61.88
51986;BME280;38002;53.296;6.600;2022-07-23T21:05:34;102149.69;;;18.36;62.39
51986;BME280;38002;53.296;6.600;2022-07-23T21:10:34;102149.38;;;18.31;62.71
51986;BME280;38002;53.296;6.600;2022-07-23T21:15:35;102139.66;;;18.20;62.88
51986;BME280;38002;53.296;6.600;2022-07-23T21:20:35;102131.56;;;18.19;63.08
51986;BME280;38002;53.296;6.600;2022-07-23T21:25:55;102139.88;;;18.10;63.10
51986;BME280;38002;53.296;6.600;2022-07-23T21:30:55;102146.94;;;18.05;63.47
51986;BME280;38002;53.296;6.600;2022-07-23T21:35:56;102145.75;;;17.99;63.71
51986;BME280;38002;53.296;6.600;2022-07-23T21:40:56;102142.03;;;17.92;63.72
51986;BME280;38002;53.296;6.600;2022-07-23T21:45:57;102144.81;;;17.84;64.13
51986;BME280;38002;53.296;6.600;2022-07-23T21:50:57;102139.47;;;17.83;63.95
51986;BME280;38002;53.296;6.600;2022-07-23T21:55:58;102136.25;;;17.71;64.01
51986;BME280;38002;53.296;6.600;2022-07-23T22:00:58;102138.81;;;17.81;64.04
51986;BME280;38002;53.296;6.600;2022-07-23T22:05:59;102137.59;;;17.83;64.06
51986;BME280;38002;53.296;6.600;2022-07-23T22:11:00;102129.53;;;17.82;64.19
51986;BME280;38002;53.296;6.600;2022-07-23T22:16:00;102115.25;;;17.78;64.24
51986;BME280;38002;53.296;6.600;2022-07-23T22:21:01;102114.25;;;17.71;64.43
51986;BME280;38002;53.296;6.600;2022-07-23T22:26:01;102125.25;;;17.71;64.67
51986;BME280;38002;53.296;6.600;2022-07-23T22:31:02;102120.28;;;17.66;64.98
51986;BME280;38002;53.296;6.600;2022-07-23T22:36:02;102120.97;;;17.68;65.07
51986;BME280;38002;53.296;6.600;2022-07-23T22:41:03;102116.53;;;17.59;65.17
51986;BME280;38002;53.296;6.600;2022-07-23T22:46:03;102117.06;;;17.47;65.52
51986;BME280;38002;53.296;6.600;2022-07-23T22:51:04;102107.75;;;17.48;65.57
51986;BME280;38002;53.296;6.600;2022-07-23T22:56:05;102114.84;;;17.42;65.59
51986;BME280;38002;53.296;6.600;2022-07-23T23:01:05;102105.44;;;17.29;65.95
51986;BME280;38002;53.296;6.600;2022-07-23T23:06:06;102112.28;;;17.33;65.84
51986;BME280;38002;53.296;6.600;2022-07-23T23:11:06;102113.16;;;17.33;65.70
51986;BME280;38002;53.296;6.600;2022-07-23T23:16:07;102113.69;;;17.29;66.11
51986;BME280;38002;53.296;6.600;2022-07-23T23:21:07;102110.41;;;17.25;66.25
51986;BME280;38002;53.296;6.600;2022-07-23T23:26:08;102088.13;;;17.04;66.51
51986;BME280;38002;53.296;6.600;2022-07-23T23:31:10;102105.63;;;17.11;66.44
51986;BME280;38002;53.296;6.600;2022-07-23T23:36:11;102102.19;;;17.09;66.74
51986;BME280;38002;53.296;6.600;2022-07-23T23:41:12;102096.19;;;17.05;66.64
51986;BME280;38002;53.296;6.600;2022-07-23T23:46:12;102084.19;;;16.98;66.90
51986;BME280;38002;53.296;6.600;2022-07-23T23:51:12;102083.31;;;16.98;66.85
51986;BME280;38002;53.296;6.600;2022-07-23T23:56:13;102092.59;;;16.97;66.83
